sensor_id;sensor_type;location;lat;lon;timestamp;temperature;humidity
9861;DHT22;4969;52.304;4.968;2024-02-14T00:00:33;15.11;66.04
9861;DHT22;4969;52.304;4.968;2024-02-14T00:02:59;15.86;63.73
9861;DHT22;4969;52.304;4.968;2024-02-14T00:05:26;15.64;63.18
9861;DHT22;4969;52.304;4.968;2024-02-14T00:07:54;15.48;63.75
9861;DHT22;4969;52.304;4.968;2024-02-14T00:10:20;15.06;65.75
9861;DHT22;4969;52.304;4.968;2024-02-14T00:12:48;15.71;63.01
9861;DHT22;4969;52.304;4.968;2024-02-14T00:15:14;15.31;65.28
9861;DHT22;4969;52.304;4.968;2024-02-14T00:17:42;15.89;63.40
9861;DHT22;4969;52.304;4.968;2024-02-14T00:20:10;15.69;63.85
9861;DHT22;4969;52.304;4.968;2024-02-14T00:22:37;16.00;63.24
9861;DHT22;4969;52.304;4.968;2024-02-14T00:25:04;16.05;62.56
9861;DHT22;4969;52.304;4.968;2024-02-14T00:27:31;15.65;62.63
9861;DHT22;4969;52.304;4.968;2024-02-14T00:29:58;16.23;62.79
9861;DHT22;4969;52.304;4.968;2024-02-14T00:32:25;16.13;62.09
9861;DHT22;4969;52.304;4.968;2024-02-14T00:34:53;16.14;62.89
9861;DHT22;4969;52.304;4.968;2024-02-14T00:37:19;15.75;62.87
9861;DHT22;4969;52.304;4.968;2024-02-14T00:39:46;15.89;62.05
9861;DHT22;4969;52.304;4.968;2024-02-14T00:42:14;15.79;63.15
9861;DHT22;4969;52.304;4.968;2024-02-14T00:44:40;15.65;62.73
9861;DHT22;4969;52.304;4.968;2024-02-14T00:47:07;15.33;63.63
9861;DHT22;4969;52.304;4.968;2024-02-14T00:49:34;15.61;62.67
9861;DHT22;4969;52.304;4.968;2024-02-14T00:52:03;15.18;64.02
9861;DHT22;4969;52.304;4.968;2024-02-14T00:54:29;14.92;66.33
9861;DHT22;4969;52.304;4.968;2024-02-14T00:56:56;15.20;66.30
9861;DHT22;4969;52.304;4.968;2024-02-14T00:59:22;15.17;65.17
9861;DHT22;4969;52.304;4.968;2024-02-14T01:01:50;15.37;65.61
9861;DHT22;4969;52.304;4.968;2024-02-14T01:04:17;14.90;65.66
9861;DHT22;4969;52.304;4.968;2024-02-14T01:06:43;15.03;65.34
9861;DHT22;4969;52.304;4.968;2024-02-14T01:09:11;15.23;65.40
9861;DHT22;4969;52.304;4.968;2024-02-14T01:11:38;14.64;66.97
9861;DHT22;4969;52.304;4.968;2024-02-14T01:14:05;14.41;67.62
9861;DHT22;4969;52.304;4.968;2024-02-14T01:16:31;14.78;67.36
9861;DHT22;4969;52.304;4.968;2024-02-14T01:18:58;14.88;67.04
9861;DHT22;4969;52.304;4.968;2024-02-14T01:21:24;15.55;64.87
9861;DHT22;4969;52.304;4.968;2024-02-14T01:23:51;15.31;65.65
9861;DHT22;4969;52.304;4.968;2024-02-14T01:26:19;14.89;66.45
9861;DHT22;4969;52.304;4.968;2024-02-14T01:28:46;14.99;66.16
9861;DHT22;4969;52.304;4.968;2024-02-14T01:31:13;15.04;66.69
9861;DHT22;4969;52.304;4.968;2024-02-14T01:33:40;14.73;66.39
9861;DHT22;4969;52.304;4.968;2024-02-14T01:36:06;14.17;68.05
9861;DHT22;4969;52.304;4.968;2024-02-14T01:38:33;15.03;65.55
9861;DHT22;4969;52.304;4.968;2024-02-14T01:41:01;14.89;66.58
9861;DHT22;4969;52.304;4.968;2024-02-14T01:43:29;15.00;66.71
9861;DHT22;4969;52.304;4.968;2024-02-14T01:46:03;14.40;68.11
9861;DHT22;4969;52.304;4.968;2024-02-14T01:48:30;14.57;67.42
9861;DHT22;4969;52.304;4.968;2024-02-14T01:50:57;14.69;68.13
9861;DHT22;4969;52.304;4.968;2024-02-14T01:53:24;14.51;68.19
9861;DHT22;4969;52.304;4.968;2024-02-14T01:55:51;14.57;68.18
9861;DHT22;4969;52.304;4.968;2024-02-14T01:58:17;14.55;67.32
9861;DHT22;4969;52.304;4.968;2024-02-14T02:00:46;14.28;69.17
9861;DHT22;4969;52.304;4.968;2024-02-14T02:03:13;14.64;66.91
9861;DHT22;4969;52.304;4.968;2024-02-14T02:05:40;14.45;69.21
9861;DHT22;4969;52.304;4.968;2024-02-14T02:08:07;14.33;69.12
9861;DHT22;4969;52.304;4.968;2024-02-14T02:10:34;14.42;68.21
9861;DHT22;4969;52.304;4.968;2024-02-14T02:13:00;14.52;69.35
9861;DHT22;4969;52.304;4.968;2024-02-14T02:15:27;14.92;67.52
9861;DHT22;4969;52.304;4.968;2024-02-14T02:17:56;15.09;66.58
9861;DHT22;4969;52.304;4.968;2024-02-14T02:20:24;15.10;66.78
9861;DHT22;4969;52.304;4.968;2024-02-14T02:22:54;14.96;67.54
9861;DHT22;4969;52.304;4.968;2024-02-14T02:25:21;14.76;68.17
9861;DHT22;4969;52.304;4.968;2024-02-14T02:27:50;14.90;67.80
9861;DHT22;4969;52.304;4.968;2024-02-14T02:30:17;14.37;69.14
9861;DHT22;4969;52.304;4.968;2024-02-14T02:32:43;14.52;69.37
9861;DHT22;4969;52.304;4.968;2024-02-14T02:35:10;14.57;67.76
9861;DHT22;4969;52.304;4.968;2024-02-14T02:37:36;14.67;68.29
9861;DHT22;4969;52.304;4.968;2024-02-14T02:40:05;14.71;68.53
9861;DHT22;4969;52.304;4.968;2024-02-14T02:42:35;14.78;68.37
9861;DHT22;4969;52.304;4.968;2024-02-14T02:45:01;14.75;68.42
9861;DHT22;4969;52.304;4.968;2024-02-14T02:47:30;14.68;68.45
9861;DHT22;4969;52.304;4.968;2024-02-14T02:49:57;15.07;67.21
9861;DHT22;4969;52.304;4.968;2024-02-14T02:52:28;15.09;67.01
9861;DHT22;4969;52.304;4.968;2024-02-14T02:54:55;15.06;67.22
9861;DHT22;4969;52.304;4.968;2024-02-14T02:57:23;15.28;66.49
9861;DHT22;4969;52.304;4.968;2024-02-14T02:59:52;14.93;67.92
9861;DHT22;4969;52.304;4.968;2024-02-14T03:02:19;14.71;68.34
9861;DHT22;4969;52.304;4.968;2024-02-14T03:04:46;15.45;65.91
9861;DHT22;4969;52.304;4.968;2024-02-14T03:07:13;15.34;66.20
9861;DHT22;4969;52.304;4.968;2024-02-14T03:09:39;15.16;66.66
9861;DHT22;4969;52.304;4.968;2024-02-14T03:12:07;15.16;66.90
9861;DHT22;4969;52.304;4.968;2024-02-14T03:14:35;14.92;67.78
9861;DHT22;4969;52.304;4.968;2024-02-14T03:17:02;14.92;68.07
9861;DHT22;4969;52.304;4.968;2024-02-14T03:19:28;14.95;67.67
9861;DHT22;4969;52.304;4.968;2024-02-14T03:21:55;15.20;67.12
9861;DHT22;4969;52.304;4.968;2024-02-14T03:24:23;14.92;68.09
9861;DHT22;4969;52.304;4.968;2024-02-14T03:26:50;14.30;69.53
9861;DHT22;4969;52.304;4.968;2024-02-14T03:29:19;14.31;70.48
9861;DHT22;4969;52.304;4.968;2024-02-14T03:31:47;13.95;71.64
9861;DHT22;4969;52.304;4.968;2024-02-14T03:34:13;14.33;70.58
9861;DHT22;4969;52.304;4.968;2024-02-14T03:36:40;13.81;72.34
9861;DHT22;4969;52.304;4.968;2024-02-14T03:39:08;13.97;71.73
9861;DHT22;4969;52.304;4.968;2024-02-14T03:41:34;14.65;69.72
9861;DHT22;4969;52.304;4.968;2024-02-14T03:44:02;14.05;72.03
9861;DHT22;4969;52.304;4.968;2024-02-14T03:46:29;14.20;71.31
9861;DHT22;4969;52.304;4.968;2024-02-14T03:48:57;14.00;72.52
9861;DHT22;4969;52.304;4.968;2024-02-14T03:51:24;13.93;72.82
9861;DHT22;4969;52.304;4.968;2024-02-14T03:53:50;14.21;71.48
9861;DHT22;4969;52.304;4.968;2024-02-14T03:56:17;13.83;73.28
9861;DHT22;4969;52.304;4.968;2024-02-14T03:58:44;13.68;73.68
9861;DHT22;4969;52.304;4.968;2024-02-14T04:01:12;13.82;72.91
9861;DHT22;4969;52.304;4.968;2024-02-14T04:03:38;13.66;73.94
9861;DHT22;4969;52.304;4.968;2024-02-14T04:06:07;13.71;73.50
9861;DHT22;4969;52.304;4.968;2024-02-14T04:08:33;13.69;73.98
9861;DHT22;4969;52.304;4.968;2024-02-14T04:11:00;14.09;72.06
9861;DHT22;4969;52.304;4.968;2024-02-14T04:13:27;13.90;72.94
9861;DHT22;4969;52.304;4.968;2024-02-14T04:15:54;14.12;72.38
9861;DHT22;4969;52.304;4.968;2024-02-14T04:18:20;14.40;70.70
9861;DHT22;4969;52.304;4.968;2024-02-14T04:20:47;14.33;71.35
9861;DHT22;4969;52.304;4.968;2024-02-14T04:23:18;13.99;72.58
9861;DHT22;4969;52.304;4.968;2024-02-14T04:25:45;13.63;74.06
9861;DHT22;4969;52.304;4.968;2024-02-14T04:28:11;13.59;74.84
9861;DHT22;4969;52.304;4.968;2024-02-14T04:30:38;13.82;73.55
9861;DHT22;4969;52.304;4.968;2024-02-14T04:33:04;13.86;73.50
9861;DHT22;4969;52.304;4.968;2024-02-14T04:35:31;14.03;72.82
9861;DHT22;4969;52.304;4.968;2024-02-14T04:37:59;14.07;72.49
9861;DHT22;4969;52.304;4.968;2024-02-14T04:40:27;13.72;74.07
9861;DHT22;4969;52.304;4.968;2024-02-14T04:42:54;13.47;75.03
9861;DHT22;4969;52.304;4.968;2024-02-14T04:45:20;13.71;74.26
9861;DHT22;4969;52.304;4.968;2024-02-14T04:47:47;13.92;73.51
9861;DHT22;4969;52.304;4.968;2024-02-14T04:50:14;14.13;72.73
9861;DHT22;4969;52.304;4.968;2024-02-14T04:52:40;14.23;72.33
9861;DHT22;4969;52.304;4.968;2024-02-14T04:55:08;14.03;72.94
9861;DHT22;4969;52.304;4.968;2024-02-14T04:57:36;14.06;72.63
9861;DHT22;4969;52.304;4.968;2024-02-14T05:00:04;14.10;72.86
9861;DHT22;4969;52.304;4.968;2024-02-14T05:02:31;14.14;72.51
9861;DHT22;4969;52.304;4.968;2024-02-14T05:04:57;14.06;72.81
9861;DHT22;4969;52.304;4.968;2024-02-14T05:07:24;14.18;72.38
9861;DHT22;4969;52.304;4.968;2024-02-14T05:09:50;13.96;73.30
9861;DHT22;4969;52.304;4.968;2024-02-14T05:12:17;13.85;74.04
9861;DHT22;4969;52.304;4.968;2024-02-14T05:14:46;13.75;74.22
9861;DHT22;4969;52.304;4.968;2024-02-14T05:17:13;13.90;73.54
9861;DHT22;4969;52.304;4.968;2024-02-14T05:19:41;14.16;72.59
9861;DHT22;4969;52.304;4.968;2024-02-14T05:22:08;14.31;71.76
9861;DHT22;4969;52.304;4.968;2024-02-14T05:24:34;13.96;73.26
9861;DHT22;4969;52.304;4.968;2024-02-14T05:27:03;14.33;72.13
9861;DHT22;4969;52.304;4.968;2024-02-14T05:29:30;14.30;72.04
9861;DHT22;4969;52.304;4.968;2024-02-14T05:31:58;13.86;73.89
9861;DHT22;4969;52.304;4.968;2024-02-14T05:34:24;13.86;73.77
9861;DHT22;4969;52.304;4.968;2024-02-14T05:36:51;13.55;75.19
9861;DHT22;4969;52.304;4.968;2024-02-14T05:39:17;13.93;74.11
9861;DHT22;4969;52.304;4.968;2024-02-14T05:41:44;14.03;73.52
9861;DHT22;4969;52.304;4.968;2024-02-14T05:44:11;14.21;72.76
9861;DHT22;4969;52.304;4.968;2024-02-14T05:46:37;14.69;70.73
9861;DHT22;4969;52.304;4.968;2024-02-14T05:49:05;14.44;71.73
9861;DHT22;4969;52.304;4.968;2024-02-14T05:51:32;14.40;71.97
9861;DHT22;4969;52.304;4.968;2024-02-14T05:53:58;14.51;71.45
9861;DHT22;4969;52.304;4.968;2024-02-14T05:56:25;14.62;70.74
9861;DHT22;4969;52.304;4.968;2024-02-14T05:58:51;14.40;71.74
9861;DHT22;4969;52.304;4.968;2024-02-14T06:01:18;14.18;72.98
9861;DHT22;4969;52.304;4.968;2024-02-14T06:03:44;14.68;70.47
9861;DHT22;4969;52.304;4.968;2024-02-14T06:06:12;14.07;73.25
9861;DHT22;4969;52.304;4.968;2024-02-14T06:08:39;13.79;74.90
9861;DHT22;4969;52.304;4.968;2024-02-14T06:11:05;14.45;71.92
9861;DHT22;4969;52.304;4.968;2024-02-14T06:13:33;14.37;72.07
9861;DHT22;4969;52.304;4.968;2024-02-14T06:16:01;14.30;72.53
9861;DHT22;4969;52.304;4.968;2024-02-14T06:18:27;13.93;74.24
9861;DHT22;4969;52.304;4.968;2024-02-14T06:20:54;13.79;75.03
9861;DHT22;4969;52.304;4.968;2024-02-14T06:23:22;13.59;75.86
9861;DHT22;4969;52.304;4.968;2024-02-14T06:25:48;14.07;74.01
9861;DHT22;4969;52.304;4.968;2024-02-14T06:28:15;14.10;73.75
9861;DHT22;4969;52.304;4.968;2024-02-14T06:30:41;13.54;76.24
9861;DHT22;4969;52.304;4.968;2024-02-14T06:33:08;13.68;75.88
9861;DHT22;4969;52.304;4.968;2024-02-14T06:35:34;13.62;76.16
9861;DHT22;4969;52.304;4.968;2024-02-14T06:38:01;13.68;75.81
9861;DHT22;4969;52.304;4.968;2024-02-14T06:40:29;13.95;74.61
9861;DHT22;4969;52.304;4.968;2024-02-14T06:42:55;13.50;76.90
9861;DHT22;4969;52.304;4.968;2024-02-14T06:45:23;13.50;76.92
9861;DHT22;4969;52.304;4.968;2024-02-14T06:47:49;13.71;75.74
9861;DHT22;4969;52.304;4.968;2024-02-14T06:50:16;13.19;77.89
9861;DHT22;4969;52.304;4.968;2024-02-14T06:52:43;13.52;76.72
9861;DHT22;4969;52.304;4.968;2024-02-14T06:55:09;13.51;76.82
9861;DHT22;4969;52.304;4.968;2024-02-14T06:57:38;13.75;75.31
9861;DHT22;4969;52.304;4.968;2024-02-14T07:00:06;14.06;74.19
9861;DHT22;4969;52.304;4.968;2024-02-14T07:02:34;13.93;75.40
9861;DHT22;4969;52.304;4.968;2024-02-14T07:05:00;14.00;74.58
9861;DHT22;4969;52.304;4.968;2024-02-14T07:07:27;14.03;74.48
9861;DHT22;4969;52.304;4.968;2024-02-14T07:09:54;14.40;72.97
9861;DHT22;4969;52.304;4.968;2024-02-14T07:12:20;14.27;73.80
9861;DHT22;4969;52.304;4.968;2024-02-14T07:14:48;13.86;75.52
9861;DHT22;4969;52.304;4.968;2024-02-14T07:17:14;13.89;75.54
9861;DHT22;4969;52.304;4.968;2024-02-14T07:19:41;13.88;75.77
9861;DHT22;4969;52.304;4.968;2024-02-14T07:22:13;14.10;73.91
9861;DHT22;4969;52.304;4.968;2024-02-14T07:24:41;13.68;76.30
9861;DHT22;4969;52.304;4.968;2024-02-14T07:27:07;13.61;76.99
9861;DHT22;4969;52.304;4.968;2024-02-14T07:29:34;13.81;76.15
9861;DHT22;4969;52.304;4.968;2024-02-14T07:32:03;13.78;76.40
9861;DHT22;4969;52.304;4.968;2024-02-14T07:34:29;14.13;74.14
9861;DHT22;4969;52.304;4.968;2024-02-14T07:36:56;14.45;73.10
9861;DHT22;4969;52.304;4.968;2024-02-14T07:39:22;14.42;73.09
9861;DHT22;4969;52.304;4.968;2024-02-14T07:41:49;13.96;75.30
9861;DHT22;4969;52.304;4.968;2024-02-14T07:44:16;13.65;76.97
9861;DHT22;4969;52.304;4.968;2024-02-14T07:46:42;13.95;75.74
9861;DHT22;4969;52.304;4.968;2024-02-14T07:49:10;14.27;74.08
9861;DHT22;4969;52.304;4.968;2024-02-14T07:51:37;14.52;72.06
9861;DHT22;4969;52.304;4.968;2024-02-14T07:54:04;14.17;74.39
9861;DHT22;4969;52.304;4.968;2024-02-14T07:56:31;13.86;76.08
9861;DHT22;4969;52.304;4.968;2024-02-14T07:58:58;13.59;77.31
9861;DHT22;4969;52.304;4.968;2024-02-14T08:01:25;13.86;76.07
9861;DHT22;4969;52.304;4.968;2024-02-14T08:03:51;14.17;74.47
9861;DHT22;4969;52.304;4.968;2024-02-14T08:06:19;14.54;72.55
9861;DHT22;4969;52.304;4.968;2024-02-14T08:08:46;14.38;73.69
9861;DHT22;4969;52.304;4.968;2024-02-14T08:11:14;14.05;75.35
9861;DHT22;4969;52.304;4.968;2024-02-14T08:13:41;14.00;75.57
9861;DHT22;4969;52.304;4.968;2024-02-14T08:16:07;14.07;75.52
9861;DHT22;4969;52.304;4.968;2024-02-14T08:18:34;13.83;76.74
9861;DHT22;4969;52.304;4.968;2024-02-14T08:21:01;13.78;76.97
9861;DHT22;4969;52.304;4.968;2024-02-14T08:23:31;13.59;77.90
9861;DHT22;4969;52.304;4.968;2024-02-14T08:25:58;13.75;77.46
9861;DHT22;4969;52.304;4.968;2024-02-14T08:28:24;13.85;76.08
9861;DHT22;4969;52.304;4.968;2024-02-14T08:30:51;14.02;75.18
9861;DHT22;4969;52.304;4.968;2024-02-14T08:33:17;14.18;75.49
9861;DHT22;4969;52.304;4.968;2024-02-14T08:35:44;13.83;76.82
9861;DHT22;4969;52.304;4.968;2024-02-14T08:38:12;13.82;76.92
9861;DHT22;4969;52.304;4.968;2024-02-14T08:40:40;13.89;77.04
9861;DHT22;4969;52.304;4.968;2024-02-14T08:43:07;14.00;76.36
9861;DHT22;4969;52.304;4.968;2024-02-14T08:45:34;14.27;74.61
9861;DHT22;4969;52.304;4.968;2024-02-14T08:48:01;14.37;74.90
9861;DHT22;4969;52.304;4.968;2024-02-14T08:50:27;14.52;74.11
9861;DHT22;4969;52.304;4.968;2024-02-14T08:52:55;14.69;73.06
9861;DHT22;4969;52.304;4.968;2024-02-14T08:55:22;14.38;74.80
9861;DHT22;4969;52.304;4.968;2024-02-14T08:57:50;14.14;75.74
9861;DHT22;4969;52.304;4.968;2024-02-14T09:00:17;14.10;76.09
9861;DHT22;4969;52.304;4.968;2024-02-14T09:02:45;14.20;75.25
9861;DHT22;4969;52.304;4.968;2024-02-14T09:05:12;14.23;75.28
9861;DHT22;4969;52.304;4.968;2024-02-14T09:07:38;14.79;72.55
9861;DHT22;4969;52.304;4.968;2024-02-14T09:10:07;14.83;73.06
9861;DHT22;4969;52.304;4.968;2024-02-14T09:12:35;14.98;72.07
9861;DHT22;4969;52.304;4.968;2024-02-14T09:15:05;15.13;71.10
9861;DHT22;4969;52.304;4.968;2024-02-14T09:17:31;14.65;73.20
9861;DHT22;4969;52.304;4.968;2024-02-14T09:19:58;14.69;73.02
9861;DHT22;4969;52.304;4.968;2024-02-14T09:22:25;15.21;70.80
9861;DHT22;4969;52.304;4.968;2024-02-14T09:24:51;14.95;72.17
9861;DHT22;4969;52.304;4.968;2024-02-14T09:27:18;14.71;73.13
9861;DHT22;4969;52.304;4.968;2024-02-14T09:29:44;14.98;71.63
9861;DHT22;4969;52.304;4.968;2024-02-14T09:32:12;14.89;72.45
9861;DHT22;4969;52.304;4.968;2024-02-14T09:34:39;14.50;74.51
9861;DHT22;4969;52.304;4.968;2024-02-14T09:37:05;14.68;73.79
9861;DHT22;4969;52.304;4.968;2024-02-14T09:39:32;14.73;73.58
9861;DHT22;4969;52.304;4.968;2024-02-14T09:42:06;15.03;72.42
9861;DHT22;4969;52.304;4.968;2024-02-14T09:44:35;14.95;72.79
9861;DHT22;4969;52.304;4.968;2024-02-14T09:47:03;14.92;73.25
9861;DHT22;4969;52.304;4.968;2024-02-14T09:49:35;15.36;71.31
9861;DHT22;4969;52.304;4.968;2024-02-14T09:52:02;15.44;71.40
9861;DHT22;4969;52.304;4.968;2024-02-14T09:54:29;15.96;69.22
9861;DHT22;4969;52.304;4.968;2024-02-14T09:56:59;15.50;71.33
9861;DHT22;4969;52.304;4.968;2024-02-14T09:59:27;15.47;71.40
9861;DHT22;4969;52.304;4.968;2024-02-14T10:01:54;15.51;71.23
9861;DHT22;4969;52.304;4.968;2024-02-14T10:04:20;15.58;70.81
9861;DHT22;4969;52.304;4.968;2024-02-14T10:06:51;15.81;70.26
9861;DHT22;4969;52.304;4.968;2024-02-14T10:09:19;15.41;71.41
9861;DHT22;4969;52.304;4.968;2024-02-14T10:11:46;15.93;69.76
9861;DHT22;4969;52.304;4.968;2024-02-14T10:14:12;16.05;69.36
9861;DHT22;4969;52.304;4.968;2024-02-14T10:16:39;15.99;69.72
9861;DHT22;4969;52.304;4.968;2024-02-14T10:19:14;15.83;70.50
9861;DHT22;4969;52.304;4.968;2024-02-14T10:21:41;15.69;70.89
9861;DHT22;4969;52.304;4.968;2024-02-14T10:24:09;15.38;72.05
9861;DHT22;4969;52.304;4.968;2024-02-14T10:26:36;15.33;72.37
9861;DHT22;4969;52.304;4.968;2024-02-14T10:29:02;15.17;72.95
9861;DHT22;4969;52.304;4.968;2024-02-14T10:31:29;15.65;70.98
9861;DHT22;4969;52.304;4.968;2024-02-14T10:33:56;15.44;71.84
9861;DHT22;4969;52.304;4.968;2024-02-14T10:36:22;15.62;71.20
9861;DHT22;4969;52.304;4.968;2024-02-14T10:38:50;15.24;72.47
9861;DHT22;4969;52.304;4.968;2024-02-14T10:41:18;15.14;73.23
9861;DHT22;4969;52.304;4.968;2024-02-14T10:43:45;15.18;73.39
9861;DHT22;4969;52.304;4.968;2024-02-14T10:46:15;15.61;71.30
9861;DHT22;4969;52.304;4.968;2024-02-14T10:48:43;16.14;69.08
9861;DHT22;4969;52.304;4.968;2024-02-14T10:51:12;15.81;70.53
9861;DHT22;4969;52.304;4.968;2024-02-14T10:53:41;15.75;70.75
9861;DHT22;4969;52.304;4.968;2024-02-14T10:56:10;15.58;70.75
9861;DHT22;4969;52.304;4.968;2024-02-14T10:58:41;15.43;71.86
9861;DHT22;4969;52.304;4.968;2024-02-14T11:01:08;15.61;70.76
9861;DHT22;4969;52.304;4.968;2024-02-14T11:03:35;15.53;71.06
9861;DHT22;4969;52.304;4.968;2024-02-14T11:06:03;15.31;71.69
9861;DHT22;4969;52.304;4.968;2024-02-14T11:08:29;15.82;69.98
9861;DHT22;4969;52.304;4.968;2024-02-14T11:10:59;15.45;71.40
9861;DHT22;4969;52.304;4.968;2024-02-14T11:13:26;15.18;72.76
9861;DHT22;4969;52.304;4.968;2024-02-14T11:15:56;15.41;71.56
9861;DHT22;4969;52.304;4.968;2024-02-14T11:18:27;15.53;71.21
9861;DHT22;4969;52.304;4.968;2024-02-14T11:20:55;15.79;70.03
9861;DHT22;4969;52.304;4.968;2024-02-14T11:23:23;15.55;71.33
9861;DHT22;4969;52.304;4.968;2024-02-14T11:25:59;15.76;71.29
9861;DHT22;4969;52.304;4.968;2024-02-14T11:28:26;16.13;68.65
9861;DHT22;4969;52.304;4.968;2024-02-14T11:31:00;15.78;70.28
9861;DHT22;4969;52.304;4.968;2024-02-14T11:33:28;15.76;70.14
9861;DHT22;4969;52.304;4.968;2024-02-14T11:35:55;15.48;71.47
9861;DHT22;4969;52.304;4.968;2024-02-14T11:38:24;15.75;69.82
9861;DHT22;4969;52.304;4.968;2024-02-14T11:40:53;15.59;70.95
9861;DHT22;4969;52.304;4.968;2024-02-14T11:43:22;15.87;69.18
9861;DHT22;4969;52.304;4.968;2024-02-14T11:45:48;15.78;70.29
9861;DHT22;4969;52.304;4.968;2024-02-14T11:48:17;15.89;69.21
9861;DHT22;4969;52.304;4.968;2024-02-14T11:50:45;15.48;71.41
9861;DHT22;4969;52.304;4.968;2024-02-14T11:53:12;15.47;71.61
9861;DHT22;4969;52.304;4.968;2024-02-14T11:55:39;15.58;71.22
9861;DHT22;4969;52.304;4.968;2024-02-14T11:58:07;15.65;70.75
9861;DHT22;4969;52.304;4.968;2024-02-14T12:00:37;15.61;70.82
9861;DHT22;4969;52.304;4.968;2024-02-14T12:03:06;15.28;72.56
9861;DHT22;4969;52.304;4.968;2024-02-14T12:05:35;15.24;72.38
9861;DHT22;4969;52.304;4.968;2024-02-14T12:08:04;15.26;72.89
9861;DHT22;4969;52.304;4.968;2024-02-14T12:10:32;15.28;73.17
9861;DHT22;4969;52.304;4.968;2024-02-14T12:13:06;15.57;71.51
9861;DHT22;4969;52.304;4.968;2024-02-14T12:15:39;15.50;72.01
9861;DHT22;4969;52.304;4.968;2024-02-14T12:18:07;15.48;72.35
9861;DHT22;4969;52.304;4.968;2024-02-14T12:20:36;15.75;70.90
9861;DHT22;4969;52.304;4.968;2024-02-14T12:23:02;15.92;69.87
9861;DHT22;4969;52.304;4.968;2024-02-14T12:25:29;16.09;69.26
9861;DHT22;4969;52.304;4.968;2024-02-14T12:27:57;15.89;69.83
9861;DHT22;4969;52.304;4.968;2024-02-14T12:30:42;15.78;70.43
9861;DHT22;4969;52.304;4.968;2024-02-14T12:33:10;15.94;69.70
9861;DHT22;4969;52.304;4.968;2024-02-14T12:35:41;15.58;71.09
9861;DHT22;4969;52.304;4.968;2024-02-14T12:38:09;15.51;71.94
9861;DHT22;4969;52.304;4.968;2024-02-14T12:40:36;15.48;71.93
9861;DHT22;4969;52.304;4.968;2024-02-14T12:43:03;15.54;72.04
9861;DHT22;4969;52.304;4.968;2024-02-14T12:45:31;15.54;71.52
9861;DHT22;4969;52.304;4.968;2024-02-14T12:47:57;15.44;71.97
9861;DHT22;4969;52.304;4.968;2024-02-14T12:50:24;15.18;73.70
9861;DHT22;4969;52.304;4.968;2024-02-14T12:52:52;15.69;71.48
9861;DHT22;4969;52.304;4.968;2024-02-14T12:55:19;15.59;71.85
9861;DHT22;4969;52.304;4.968;2024-02-14T12:57:45;15.62;71.14
9861;DHT22;4969;52.304;4.968;2024-02-14T13:00:14;15.43;72.53
9861;DHT22;4969;52.304;4.968;2024-02-14T13:02:40;15.34;73.46
9861;DHT22;4969;52.304;4.968;2024-02-14T13:05:08;15.31;73.39
9861;DHT22;4969;52.304;4.968;2024-02-14T13:07:34;15.40;72.88
9861;DHT22;4969;52.304;4.968;2024-02-14T13:10:03;15.61;72.13
9861;DHT22;4969;52.304;4.968;2024-02-14T13:12:31;15.94;70.42
9861;DHT22;4969;52.304;4.968;2024-02-14T13:15:01;15.71;71.65
9861;DHT22;4969;52.304;4.968;2024-02-14T13:17:28;15.69;71.48
9861;DHT22;4969;52.304;4.968;2024-02-14T13:19:54;15.81;71.07
9861;DHT22;4969;52.304;4.968;2024-02-14T13:22:22;15.64;71.90
9861;DHT22;4969;52.304;4.968;2024-02-14T13:24:48;15.61;72.25
9861;DHT22;4969;52.304;4.968;2024-02-14T13:27:17;15.53;72.45
9861;DHT22;4969;52.304;4.968;2024-02-14T13:29:45;15.43;73.19
9861;DHT22;4969;52.304;4.968;2024-02-14T13:32:12;15.40;73.56
9861;DHT22;4969;52.304;4.968;2024-02-14T13:34:38;15.54;72.80
9861;DHT22;4969;52.304;4.968;2024-02-14T13:37:05;16.08;69.98
9861;DHT22;4969;52.304;4.968;2024-02-14T13:39:34;15.89;71.39
9861;DHT22;4969;52.304;4.968;2024-02-14T13:42:01;15.87;71.17
9861;DHT22;4969;52.304;4.968;2024-02-14T13:44:29;15.36;73.45
9861;DHT22;4969;52.304;4.968;2024-02-14T13:46:56;15.11;74.61
9861;DHT22;4969;52.304;4.968;2024-02-14T13:49:22;15.38;73.86
9861;DHT22;4969;52.304;4.968;2024-02-14T13:51:50;15.48;73.36
9861;DHT22;4969;52.304;4.968;2024-02-14T13:54:17;14.99;75.43
9861;DHT22;4969;52.304;4.968;2024-02-14T13:56:44;15.14;75.12
9861;DHT22;4969;52.304;4.968;2024-02-14T13:59:11;14.81;76.54
9861;DHT22;4969;52.304;4.968;2024-02-14T14:01:39;15.24;74.59
9861;DHT22;4969;52.304;4.968;2024-02-14T14:04:06;15.31;74.32
9861;DHT22;4969;52.304;4.968;2024-02-14T14:06:32;14.90;76.51
9861;DHT22;4969;52.304;4.968;2024-02-14T14:09:00;15.14;75.10
9861;DHT22;4969;52.304;4.968;2024-02-14T14:11:28;15.14;75.44
9861;DHT22;4969;52.304;4.968;2024-02-14T14:13:55;15.17;75.68
9861;DHT22;4969;52.304;4.968;2024-02-14T14:16:21;15.07;76.29
9861;DHT22;4969;52.304;4.968;2024-02-14T14:18:49;14.79;77.25
9861;DHT22;4969;52.304;4.968;2024-02-14T14:21:16;14.60;78.14
9861;DHT22;4969;52.304;4.968;2024-02-14T14:23:43;14.75;77.81
9861;DHT22;4969;52.304;4.968;2024-02-14T14:26:10;14.98;76.73
9861;DHT22;4969;52.304;4.968;2024-02-14T14:28:38;15.18;76.20
9861;DHT22;4969;52.304;4.968;2024-02-14T14:31:05;14.86;77.39
9861;DHT22;4969;52.304;4.968;2024-02-14T14:33:32;15.04;76.58
9861;DHT22;4969;52.304;4.968;2024-02-14T14:35:59;14.67;77.88
9861;DHT22;4969;52.304;4.968;2024-02-14T14:38:26;14.72;78.34
9861;DHT22;4969;52.304;4.968;2024-02-14T14:40:52;14.52;78.86
9861;DHT22;4969;52.304;4.968;2024-02-14T14:43:21;14.71;78.45
9861;DHT22;4969;52.304;4.968;2024-02-14T14:45:47;14.71;78.18
9861;DHT22;4969;52.304;4.968;2024-02-14T14:48:14;14.38;79.29
9861;DHT22;4969;52.304;4.968;2024-02-14T14:50:42;14.89;77.94
9861;DHT22;4969;52.304;4.968;2024-02-14T14:53:10;15.27;76.59
9861;DHT22;4969;52.304;4.968;2024-02-14T14:55:49;15.13;77.20
9861;DHT22;4969;52.304;4.968;2024-02-14T14:58:16;14.92;77.67
9861;DHT22;4969;52.304;4.968;2024-02-14T15:00:43;14.50;78.98
9861;DHT22;4969;52.304;4.968;2024-02-14T15:03:10;14.69;78.90
9861;DHT22;4969;52.304;4.968;2024-02-14T15:05:37;14.44;78.94
9861;DHT22;4969;52.304;4.968;2024-02-14T15:08:04;14.45;79.77
9861;DHT22;4969;52.304;4.968;2024-02-14T15:10:35;14.51;79.32
9861;DHT22;4969;52.304;4.968;2024-02-14T15:13:03;14.48;79.60
9861;DHT22;4969;52.304;4.968;2024-02-14T15:15:30;14.67;79.10
9861;DHT22;4969;52.304;4.968;2024-02-14T15:17:57;14.44;79.48
9861;DHT22;4969;52.304;4.968;2024-02-14T15:20:23;14.58;79.31
9861;DHT22;4969;52.304;4.968;2024-02-14T15:22:50;14.65;79.15
9861;DHT22;4969;52.304;4.968;2024-02-14T15:25:16;14.41;79.32
9861;DHT22;4969;52.304;4.968;2024-02-14T15:27:44;14.85;78.87
9861;DHT22;4969;52.304;4.968;2024-02-14T15:30:20;15.04;78.30
9861;DHT22;4969;52.304;4.968;2024-02-14T15:33:06;15.14;77.58
9861;DHT22;4969;52.304;4.968;2024-02-14T15:35:49;14.98;77.64
9861;DHT22;4969;52.304;4.968;2024-02-14T15:38:16;15.23;76.89
9861;DHT22;4969;52.304;4.968;2024-02-14T15:40:44;15.11;76.98
9861;DHT22;4969;52.304;4.968;2024-02-14T15:43:12;15.18;76.36
9861;DHT22;4969;52.304;4.968;2024-02-14T15:45:39;15.34;75.98
9861;DHT22;4969;52.304;4.968;2024-02-14T15:48:05;14.99;76.72
9861;DHT22;4969;52.304;4.968;2024-02-14T15:50:32;15.51;75.01
9861;DHT22;4969;52.304;4.968;2024-02-14T15:52:59;15.57;74.96
9861;DHT22;4969;52.304;4.968;2024-02-14T15:55:26;15.09;76.22
9861;DHT22;4969;52.304;4.968;2024-02-14T15:57:53;14.68;77.28
9861;DHT22;4969;52.304;4.968;2024-02-14T16:00:21;14.51;78.13
9861;DHT22;4969;52.304;4.968;2024-02-14T16:02:51;14.34;78.63